St. Veit, Austria
Current Conditions -  °F | °C
As of 9:50 AM on Saturday 25 Oct 2014 (Local Time) from LOWW Reporting Station
Broken Clouds Broken Clouds  
Wind Chill: 41°   Ceiling: 2000
Heat Index: 41°   Visibility: 6mi
Dew Point: 37°   Wind: 3mph
Humidity: 87%   Direction: 120°ESE
Pressure: 30.24"   Gusts: NA
Location:  47.93°N, 16.15°E
Report Text: LOWW 250750Z 12003KT 9000 BKN020 05/03 Q1024 NOSIG
Loading
Personal Weather Stations






























Interactive Weather Map
Tropical Storm Tracking
New forecast layout! Learn more

10-Day Weather Forecast

Advertisements
Track Severe Weather on mobile